sensor_id;sensor_type;location;lat;lon;timestamp;P1;durP1;ratioP1;P2;durP2;ratioP2
38779;SDS011;29273;49.962;9.768;2024-02-04T00:01:15;0.40;;;0.40;;
38779;SDS011;29273;49.962;9.768;2024-02-04T00:03:40;0.50;;;0.40;;
38779;SDS011;29273;49.962;9.768;2024-02-04T00:06:06;0.70;;;0.50;;
38779;SDS011;29273;49.962;9.768;2024-02-04T00:08:32;1.02;;;0.50;;
38779;SDS011;29273;49.962;9.768;2024-02-04T00:10:57;0.77;;;0.60;;
38779;SDS011;29273;49.962;9.768;2024-02-04T00:13:23;0.65;;;0.55;;
38779;SDS011;29273;49.962;9.768;2024-02-04T00:15:48;0.70;;;0.60;;
38779;SDS011;29273;49.962;9.768;2024-02-04T00:18:14;0.60;;;0.60;;
38779;SDS011;29273;49.962;9.768;2024-02-04T00:20:39;0.50;;;0.50;;
38779;SDS011;29273;49.962;9.768;2024-02-04T00:23:05;0.77;;;0.60;;
38779;SDS011;29273;49.962;9.768;2024-02-04T00:25:31;0.60;;;0.60;;
38779;SDS011;29273;49.962;9.768;2024-02-04T00:27:56;0.60;;;0.60;;
38779;SDS011;29273;49.962;9.768;2024-02-04T00:30:22;0.60;;;0.60;;
38779;SDS011;29273;49.962;9.768;2024-02-04T00:32:47;0.65;;;0.60;;
38779;SDS011;29273;49.962;9.768;2024-02-04T00:35:13;0.52;;;0.52;;
38779;SDS011;29273;49.962;9.768;2024-02-04T00:37:38;0.50;;;0.50;;
38779;SDS011;29273;49.962;9.768;2024-02-04T00:40:04;0.43;;;0.43;;
38779;SDS011;29273;49.962;9.768;2024-02-04T00:42:30;0.70;;;0.50;;
38779;SDS011;29273;49.962;9.768;2024-02-04T00:44:55;0.52;;;0.52;;
38779;SDS011;29273;49.962;9.768;2024-02-04T00:47:21;0.88;;;0.60;;
38779;SDS011;29273;49.962;9.768;2024-02-04T00:49:46;0.82;;;0.43;;
38779;SDS011;29273;49.962;9.768;2024-02-04T00:52:12;0.60;;;0.50;;
38779;SDS011;29273;49.962;9.768;2024-02-04T00:54:37;0.50;;;0.50;;
38779;SDS011;29273;49.962;9.768;2024-02-04T00:57:03;0.50;;;0.50;;
38779;SDS011;29273;49.962;9.768;2024-02-04T00:59:29;0.50;;;0.50;;
38779;SDS011;29273;49.962;9.768;2024-02-04T01:01:54;0.50;;;0.50;;
38779;SDS011;29273;49.962;9.768;2024-02-04T01:04:21;0.30;;;0.30;;
38779;SDS011;29273;49.962;9.768;2024-02-04T01:06:48;0.50;;;0.50;;
38779;SDS011;29273;49.962;9.768;2024-02-04T01:09:13;0.70;;;0.50;;
38779;SDS011;29273;49.962;9.768;2024-02-04T01:11:39;0.50;;;0.50;;
38779;SDS011;29273;49.962;9.768;2024-02-04T01:14:04;0.32;;;0.32;;
38779;SDS011;29273;49.962;9.768;2024-02-04T01:16:30;0.45;;;0.43;;
38779;SDS011;29273;49.962;9.768;2024-02-04T01:18:55;0.68;;;0.50;;
38779;SDS011;29273;49.962;9.768;2024-02-04T01:21:21;0.50;;;0.50;;
38779;SDS011;29273;49.962;9.768;2024-02-04T01:23:46;0.40;;;0.40;;
38779;SDS011;29273;49.962;9.768;2024-02-04T01:26:12;0.40;;;0.40;;
38779;SDS011;29273;49.962;9.768;2024-02-04T01:28:37;1.02;;;0.55;;
38779;SDS011;29273;49.962;9.768;2024-02-04T01:31:03;0.60;;;0.60;;
38779;SDS011;29273;49.962;9.768;2024-02-04T01:33:28;0.50;;;0.50;;
38779;SDS011;29273;49.962;9.768;2024-02-04T01:35:54;0.85;;;0.60;;
38779;SDS011;29273;49.962;9.768;2024-02-04T01:38:20;0.60;;;0.60;;
38779;SDS011;29273;49.962;9.768;2024-02-04T01:40:46;0.43;;;0.43;;
38779;SDS011;29273;49.962;9.768;2024-02-04T01:43:11;0.50;;;0.50;;
38779;SDS011;29273;49.962;9.768;2024-02-04T01:45:37;0.68;;;0.52;;
38779;SDS011;29273;49.962;9.768;2024-02-04T01:48:03;0.50;;;0.50;;
38779;SDS011;29273;49.962;9.768;2024-02-04T01:50:29;0.55;;;0.55;;
38779;SDS011;29273;49.962;9.768;2024-02-04T01:52:55;0.75;;;0.60;;
38779;SDS011;29273;49.962;9.768;2024-02-04T01:55:21;0.70;;;0.60;;
38779;SDS011;29273;49.962;9.768;2024-02-04T01:57:47;0.93;;;0.40;;
38779;SDS011;29273;49.962;9.768;2024-02-04T02:00:15;0.90;;;0.50;;
38779;SDS011;29273;49.962;9.768;2024-02-04T02:02:40;0.52;;;0.52;;
38779;SDS011;29273;49.962;9.768;2024-02-04T02:05:07;0.82;;;0.60;;
38779;SDS011;29273;49.962;9.768;2024-02-04T02:07:33;0.70;;;0.55;;
38779;SDS011;29273;49.962;9.768;2024-02-04T02:09:59;0.50;;;0.50;;
38779;SDS011;29273;49.962;9.768;2024-02-04T02:13:07;0.85;;;0.70;;
38779;SDS011;29273;49.962;9.768;2024-02-04T02:15:20;0.52;;;0.52;;
38779;SDS011;29273;49.962;9.768;2024-02-04T02:17:52;0.60;;;0.50;;
38779;SDS011;29273;49.962;9.768;2024-02-04T02:20:27;0.50;;;0.50;;
38779;SDS011;29273;49.962;9.768;2024-02-04T02:23:12;0.60;;;0.60;;
38779;SDS011;29273;49.962;9.768;2024-02-04T02:25:41;0.40;;;0.40;;
38779;SDS011;29273;49.962;9.768;2024-02-04T02:28:08;0.40;;;0.40;;
38779;SDS011;29273;49.962;9.768;2024-02-04T02:30:35;0.40;;;0.40;;
38779;SDS011;29273;49.962;9.768;2024-02-04T02:33:00;0.50;;;0.40;;
38779;SDS011;29273;49.962;9.768;2024-02-04T02:35:26;0.30;;;0.30;;
38779;SDS011;29273;49.962;9.768;2024-02-04T02:40:40;0.75;;;0.50;;
38779;SDS011;29273;49.962;9.768;2024-02-04T02:43:12;0.30;;;0.30;;
38779;SDS011;29273;49.962;9.768;2024-02-04T02:45:39;0.30;;;0.30;;
38779;SDS011;29273;49.962;9.768;2024-02-04T02:48:07;0.55;;;0.30;;
38779;SDS011;29273;49.962;9.768;2024-02-04T02:50:37;0.30;;;0.30;;
38779;SDS011;29273;49.962;9.768;2024-02-04T02:53:03;0.40;;;0.32;;
38779;SDS011;29273;49.962;9.768;2024-02-04T02:55:29;0.30;;;0.30;;
38779;SDS011;29273;49.962;9.768;2024-02-04T02:57:55;0.40;;;0.40;;
38779;SDS011;29273;49.962;9.768;2024-02-04T03:00:20;0.40;;;0.40;;
38779;SDS011;29273;49.962;9.768;2024-02-04T03:02:46;0.35;;;0.30;;
38779;SDS011;29273;49.962;9.768;2024-02-04T03:05:12;0.45;;;0.45;;
38779;SDS011;29273;49.962;9.768;2024-02-04T03:07:38;0.35;;;0.35;;
38779;SDS011;29273;49.962;9.768;2024-02-04T03:10:03;0.30;;;0.30;;
38779;SDS011;29273;49.962;9.768;2024-02-04T03:12:29;0.47;;;0.30;;
38779;SDS011;29273;49.962;9.768;2024-02-04T03:14:55;0.65;;;0.32;;
38779;SDS011;29273;49.962;9.768;2024-02-04T03:17:21;0.40;;;0.40;;
38779;SDS011;29273;49.962;9.768;2024-02-04T03:19:48;0.30;;;0.30;;
38779;SDS011;29273;49.962;9.768;2024-02-04T03:22:14;0.30;;;0.30;;
38779;SDS011;29273;49.962;9.768;2024-02-04T03:24:40;0.30;;;0.30;;
38779;SDS011;29273;49.962;9.768;2024-02-04T03:27:05;0.40;;;0.40;;
38779;SDS011;29273;49.962;9.768;2024-02-04T03:29:31;0.30;;;0.30;;
38779;SDS011;29273;49.962;9.768;2024-02-04T03:31:57;0.30;;;0.30;;
38779;SDS011;29273;49.962;9.768;2024-02-04T03:34:23;0.88;;;0.60;;
38779;SDS011;29273;49.962;9.768;2024-02-04T03:36:48;0.30;;;0.30;;
38779;SDS011;29273;49.962;9.768;2024-02-04T03:39:14;0.30;;;0.30;;
38779;SDS011;29273;49.962;9.768;2024-02-04T03:41:39;0.60;;;0.60;;
38779;SDS011;29273;49.962;9.768;2024-02-04T03:44:05;0.30;;;0.30;;
38779;SDS011;29273;49.962;9.768;2024-02-04T03:46:30;0.80;;;0.50;;
38779;SDS011;29273;49.962;9.768;2024-02-04T03:48:56;0.50;;;0.50;;
38779;SDS011;29273;49.962;9.768;2024-02-04T03:51:22;0.40;;;0.40;;
38779;SDS011;29273;49.962;9.768;2024-02-04T03:53:49;0.50;;;0.50;;
38779;SDS011;29273;49.962;9.768;2024-02-04T03:56:15;0.57;;;0.43;;
38779;SDS011;29273;49.962;9.768;2024-02-04T03:58:41;0.80;;;0.60;;
38779;SDS011;29273;49.962;9.768;2024-02-04T04:01:09;0.50;;;0.47;;
38779;SDS011;29273;49.962;9.768;2024-02-04T04:03:39;0.43;;;0.32;;
38779;SDS011;29273;49.962;9.768;2024-02-04T04:06:07;0.30;;;0.30;;
38779;SDS011;29273;49.962;9.768;2024-02-04T04:08:34;0.20;;;0.20;;
38779;SDS011;29273;49.962;9.768;2024-02-04T04:11:00;0.20;;;0.20;;
38779;SDS011;29273;49.962;9.768;2024-02-04T04:13:25;0.30;;;0.30;;
38779;SDS011;29273;49.962;9.768;2024-02-04T04:15:51;0.40;;;0.30;;
38779;SDS011;29273;49.962;9.768;2024-02-04T04:18:16;0.30;;;0.30;;
38779;SDS011;29273;49.962;9.768;2024-02-04T04:20:42;0.22;;;0.22;;
38779;SDS011;29273;49.962;9.768;2024-02-04T04:23:07;0.30;;;0.30;;
38779;SDS011;29273;49.962;9.768;2024-02-04T04:25:33;0.30;;;0.30;;
38779;SDS011;29273;49.962;9.768;2024-02-04T04:27:58;0.30;;;0.30;;
38779;SDS011;29273;49.962;9.768;2024-02-04T04:30:24;0.30;;;0.25;;
38779;SDS011;29273;49.962;9.768;2024-02-04T04:32:49;0.30;;;0.30;;
38779;SDS011;29273;49.962;9.768;2024-02-04T04:35:15;0.20;;;0.20;;
38779;SDS011;29273;49.962;9.768;2024-02-04T04:37:40;0.40;;;0.40;;
38779;SDS011;29273;49.962;9.768;2024-02-04T04:40:06;0.30;;;0.30;;
38779;SDS011;29273;49.962;9.768;2024-02-04T04:42:32;0.30;;;0.30;;
38779;SDS011;29273;49.962;9.768;2024-02-04T04:44:58;0.30;;;0.30;;
38779;SDS011;29273;49.962;9.768;2024-02-04T04:47:23;0.20;;;0.20;;
38779;SDS011;29273;49.962;9.768;2024-02-04T04:49:49;0.22;;;0.22;;
38779;SDS011;29273;49.962;9.768;2024-02-04T04:52:14;0.30;;;0.30;;
38779;SDS011;29273;49.962;9.768;2024-02-04T04:54:40;0.30;;;0.30;;
38779;SDS011;29273;49.962;9.768;2024-02-04T04:57:05;0.30;;;0.30;;
38779;SDS011;29273;49.962;9.768;2024-02-04T04:59:31;0.20;;;0.20;;
38779;SDS011;29273;49.962;9.768;2024-02-04T05:01:56;0.20;;;0.20;;
38779;SDS011;29273;49.962;9.768;2024-02-04T05:04:22;0.20;;;0.20;;
38779;SDS011;29273;49.962;9.768;2024-02-04T05:06:50;0.20;;;0.20;;
38779;SDS011;29273;49.962;9.768;2024-02-04T05:09:16;0.20;;;0.20;;
38779;SDS011;29273;49.962;9.768;2024-02-04T05:11:42;0.30;;;0.20;;
38779;SDS011;29273;49.962;9.768;2024-02-04T05:14:08;0.20;;;0.20;;
38779;SDS011;29273;49.962;9.768;2024-02-04T05:16:34;0.20;;;0.20;;
38779;SDS011;29273;49.962;9.768;2024-02-04T05:19:01;0.30;;;0.30;;
38779;SDS011;29273;49.962;9.768;2024-02-04T05:21:27;0.20;;;0.20;;
38779;SDS011;29273;49.962;9.768;2024-02-04T05:23:52;0.20;;;0.20;;
38779;SDS011;29273;49.962;9.768;2024-02-04T05:26:18;0.35;;;0.20;;
38779;SDS011;29273;49.962;9.768;2024-02-04T05:28:46;0.20;;;0.20;;
38779;SDS011;29273;49.962;9.768;2024-02-04T05:31:11;0.20;;;0.20;;
38779;SDS011;29273;49.962;9.768;2024-02-04T05:33:37;0.22;;;0.22;;
38779;SDS011;29273;49.962;9.768;2024-02-04T05:36:02;0.20;;;0.20;;
38779;SDS011;29273;49.962;9.768;2024-02-04T05:38:29;0.28;;;0.20;;
38779;SDS011;29273;49.962;9.768;2024-02-04T05:40:54;0.30;;;0.30;;
38779;SDS011;29273;49.962;9.768;2024-02-04T05:43:20;0.20;;;0.20;;
38779;SDS011;29273;49.962;9.768;2024-02-04T05:45:46;0.20;;;0.20;;
38779;SDS011;29273;49.962;9.768;2024-02-04T05:48:11;0.20;;;0.20;;
38779;SDS011;29273;49.962;9.768;2024-02-04T05:50:37;0.35;;;0.30;;
38779;SDS011;29273;49.962;9.768;2024-02-04T05:53:02;0.20;;;0.20;;
38779;SDS011;29273;49.962;9.768;2024-02-04T05:55:28;0.20;;;0.20;;
38779;SDS011;29273;49.962;9.768;2024-02-04T05:57:54;0.30;;;0.30;;
38779;SDS011;29273;49.962;9.768;2024-02-04T06:00:20;0.30;;;0.30;;
38779;SDS011;29273;49.962;9.768;2024-02-04T06:02:46;0.40;;;0.20;;
38779;SDS011;29273;49.962;9.768;2024-02-04T06:05:12;0.30;;;0.20;;
38779;SDS011;29273;49.962;9.768;2024-02-04T06:07:38;0.63;;;0.30;;
38779;SDS011;29273;49.962;9.768;2024-02-04T06:10:04;0.30;;;0.20;;
38779;SDS011;29273;49.962;9.768;2024-02-04T06:12:30;0.20;;;0.20;;
38779;SDS011;29273;49.962;9.768;2024-02-04T06:14:56;0.20;;;0.20;;
38779;SDS011;29273;49.962;9.768;2024-02-04T06:17:21;0.30;;;0.30;;
38779;SDS011;29273;49.962;9.768;2024-02-04T06:19:47;0.28;;;0.28;;
38779;SDS011;29273;49.962;9.768;2024-02-04T06:22:13;0.28;;;0.28;;
38779;SDS011;29273;49.962;9.768;2024-02-04T06:24:40;0.30;;;0.30;;
38779;SDS011;29273;49.962;9.768;2024-02-04T06:27:07;0.20;;;0.20;;
38779;SDS011;29273;49.962;9.768;2024-02-04T06:29:33;0.30;;;0.30;;
38779;SDS011;29273;49.962;9.768;2024-02-04T06:31:59;0.30;;;0.30;;
38779;SDS011;29273;49.962;9.768;2024-02-04T06:34:25;0.43;;;0.30;;
38779;SDS011;29273;49.962;9.768;2024-02-04T06:36:50;0.20;;;0.20;;
38779;SDS011;29273;49.962;9.768;2024-02-04T06:39:16;0.20;;;0.20;;
38779;SDS011;29273;49.962;9.768;2024-02-04T06:41:41;0.30;;;0.30;;
38779;SDS011;29273;49.962;9.768;2024-02-04T06:44:07;0.22;;;0.22;;
38779;SDS011;29273;49.962;9.768;2024-02-04T06:46:32;0.30;;;0.30;;
38779;SDS011;29273;49.962;9.768;2024-02-04T06:48:58;0.32;;;0.20;;
38779;SDS011;29273;49.962;9.768;2024-02-04T06:51:23;0.35;;;0.20;;
38779;SDS011;29273;49.962;9.768;2024-02-04T06:53:49;0.20;;;0.20;;
38779;SDS011;29273;49.962;9.768;2024-02-04T06:56:15;0.30;;;0.30;;
38779;SDS011;29273;49.962;9.768;2024-02-04T06:58:41;0.35;;;0.35;;
38779;SDS011;29273;49.962;9.768;2024-02-04T07:01:07;0.40;;;0.30;;
38779;SDS011;29273;49.962;9.768;2024-02-04T07:03:32;0.30;;;0.30;;
38779;SDS011;29273;49.962;9.768;2024-02-04T07:05:59;0.65;;;0.40;;
38779;SDS011;29273;49.962;9.768;2024-02-04T07:08:25;0.50;;;0.43;;
38779;SDS011;29273;49.962;9.768;2024-02-04T07:10:50;0.43;;;0.30;;
38779;SDS011;29273;49.962;9.768;2024-02-04T07:13:16;0.30;;;0.30;;
38779;SDS011;29273;49.962;9.768;2024-02-04T07:15:42;0.40;;;0.40;;
38779;SDS011;29273;49.962;9.768;2024-02-04T07:18:07;0.57;;;0.50;;
38779;SDS011;29273;49.962;9.768;2024-02-04T07:20:33;0.30;;;0.30;;
38779;SDS011;29273;49.962;9.768;2024-02-04T07:22:58;0.40;;;0.40;;
38779;SDS011;29273;49.962;9.768;2024-02-04T07:25:24;1.00;;;0.70;;
38779;SDS011;29273;49.962;9.768;2024-02-04T07:27:49;0.30;;;0.30;;
38779;SDS011;29273;49.962;9.768;2024-02-04T07:30:15;0.30;;;0.30;;
38779;SDS011;29273;49.962;9.768;2024-02-04T07:32:41;0.30;;;0.30;;
38779;SDS011;29273;49.962;9.768;2024-02-04T07:35:06;0.30;;;0.30;;
38779;SDS011;29273;49.962;9.768;2024-02-04T07:37:34;0.30;;;0.30;;
38779;SDS011;29273;49.962;9.768;2024-02-04T07:40:00;0.43;;;0.40;;
38779;SDS011;29273;49.962;9.768;2024-02-04T07:42:27;0.45;;;0.43;;
38779;SDS011;29273;49.962;9.768;2024-02-04T07:44:53;0.70;;;0.40;;
38779;SDS011;29273;49.962;9.768;2024-02-04T07:47:18;0.40;;;0.40;;
38779;SDS011;29273;49.962;9.768;2024-02-04T07:49:47;0.30;;;0.30;;
38779;SDS011;29273;49.962;9.768;2024-02-04T07:52:13;0.40;;;0.40;;
38779;SDS011;29273;49.962;9.768;2024-02-04T07:54:38;0.40;;;0.40;;
38779;SDS011;29273;49.962;9.768;2024-02-04T07:57:04;1.08;;;0.45;;
38779;SDS011;29273;49.962;9.768;2024-02-04T07:59:29;0.63;;;0.55;;
38779;SDS011;29273;49.962;9.768;2024-02-04T08:01:55;1.00;;;0.68;;
38779;SDS011;29273;49.962;9.768;2024-02-04T08:04:20;0.60;;;0.40;;
38779;SDS011;29273;49.962;9.768;2024-02-04T08:06:46;0.40;;;0.40;;
38779;SDS011;29273;49.962;9.768;2024-02-04T08:09:11;0.60;;;0.50;;
38779;SDS011;29273;49.962;9.768;2024-02-04T08:11:37;0.73;;;0.47;;
38779;SDS011;29273;49.962;9.768;2024-02-04T08:14:03;0.40;;;0.40;;
38779;SDS011;29273;49.962;9.768;2024-02-04T08:16:28;0.60;;;0.50;;
38779;SDS011;29273;49.962;9.768;2024-02-04T08:18:54;0.40;;;0.40;;
38779;SDS011;29273;49.962;9.768;2024-02-04T08:21:20;0.40;;;0.40;;
38779;SDS011;29273;49.962;9.768;2024-02-04T08:23:45;0.43;;;0.40;;
38779;SDS011;29273;49.962;9.768;2024-02-04T08:26:11;0.40;;;0.40;;
38779;SDS011;29273;49.962;9.768;2024-02-04T08:28:36;0.40;;;0.40;;
38779;SDS011;29273;49.962;9.768;2024-02-04T08:31:02;0.77;;;0.40;;
38779;SDS011;29273;49.962;9.768;2024-02-04T08:33:27;0.40;;;0.40;;
38779;SDS011;29273;49.962;9.768;2024-02-04T08:35:53;0.40;;;0.40;;
38779;SDS011;29273;49.962;9.768;2024-02-04T08:38:18;0.30;;;0.30;;
38779;SDS011;29273;49.962;9.768;2024-02-04T08:40:44;0.52;;;0.40;;
38779;SDS011;29273;49.962;9.768;2024-02-04T08:43:09;0.40;;;0.40;;
38779;SDS011;29273;49.962;9.768;2024-02-04T08:45:35;0.73;;;0.40;;
38779;SDS011;29273;49.962;9.768;2024-02-04T08:48:00;0.65;;;0.40;;
38779;SDS011;29273;49.962;9.768;2024-02-04T08:50:26;0.30;;;0.30;;
38779;SDS011;29273;49.962;9.768;2024-02-04T08:52:51;0.55;;;0.40;;
38779;SDS011;29273;49.962;9.768;2024-02-04T08:55:17;0.82;;;0.43;;
38779;SDS011;29273;49.962;9.768;2024-02-04T08:57:42;0.30;;;0.30;;
38779;SDS011;29273;49.962;9.768;2024-02-04T09:00:08;0.30;;;0.30;;
38779;SDS011;29273;49.962;9.768;2024-02-04T09:02:35;0.30;;;0.30;;
38779;SDS011;29273;49.962;9.768;2024-02-04T09:05:00;0.28;;;0.20;;
38779;SDS011;29273;49.962;9.768;2024-02-04T09:07:26;0.30;;;0.20;;
38779;SDS011;29273;49.962;9.768;2024-02-04T09:09:51;0.40;;;0.40;;
38779;SDS011;29273;49.962;9.768;2024-02-04T09:12:17;0.32;;;0.32;;
38779;SDS011;29273;49.962;9.768;2024-02-04T09:14:43;0.35;;;0.35;;
38779;SDS011;29273;49.962;9.768;2024-02-04T09:17:08;0.30;;;0.30;;
38779;SDS011;29273;49.962;9.768;2024-02-04T09:19:35;0.28;;;0.28;;
38779;SDS011;29273;49.962;9.768;2024-02-04T09:22:01;0.30;;;0.30;;
38779;SDS011;29273;49.962;9.768;2024-02-04T09:24:30;0.32;;;0.32;;
38779;SDS011;29273;49.962;9.768;2024-02-04T09:26:55;0.40;;;0.40;;
38779;SDS011;29273;49.962;9.768;2024-02-04T09:29:21;0.30;;;0.30;;
38779;SDS011;29273;49.962;9.768;2024-02-04T09:31:46;0.30;;;0.30;;
38779;SDS011;29273;49.962;9.768;2024-02-04T09:34:14;0.40;;;0.40;;
38779;SDS011;29273;49.962;9.768;2024-02-04T09:36:40;0.70;;;0.40;;
38779;SDS011;29273;49.962;9.768;2024-02-04T09:39:05;0.47;;;0.40;;
38779;SDS011;29273;49.962;9.768;2024-02-04T09:41:31;0.40;;;0.30;;
38779;SDS011;29273;49.962;9.768;2024-02-04T09:43:57;0.32;;;0.32;;
38779;SDS011;29273;49.962;9.768;2024-02-04T09:46:23;0.30;;;0.30;;
38779;SDS011;29273;49.962;9.768;2024-02-04T09:48:49;0.65;;;0.40;;
38779;SDS011;29273;49.962;9.768;2024-02-04T09:51:16;0.30;;;0.30;;
38779;SDS011;29273;49.962;9.768;2024-02-04T09:53:45;0.47;;;0.30;;
38779;SDS011;29273;49.962;9.768;2024-02-04T09:56:11;0.75;;;0.35;;
38779;SDS011;29273;49.962;9.768;2024-02-04T09:58:37;0.55;;;0.40;;
38779;SDS011;29273;49.962;9.768;2024-02-04T10:01:06;0.30;;;0.30;;
38779;SDS011;29273;49.962;9.768;2024-02-04T10:03:33;0.80;;;0.40;;
38779;SDS011;29273;49.962;9.768;2024-02-04T10:05:59;0.30;;;0.30;;
38779;SDS011;29273;49.962;9.768;2024-02-04T10:08:24;0.28;;;0.28;;
38779;SDS011;29273;49.962;9.768;2024-02-04T10:10:50;0.30;;;0.30;;
38779;SDS011;29273;49.962;9.768;2024-02-04T10:13:16;0.40;;;0.30;;
38779;SDS011;29273;49.962;9.768;2024-02-04T10:15:41;0.50;;;0.50;;
38779;SDS011;29273;49.962;9.768;2024-02-04T10:18:07;0.70;;;0.40;;
38779;SDS011;29273;49.962;9.768;2024-02-04T10:20:33;0.40;;;0.40;;
38779;SDS011;29273;49.962;9.768;2024-02-04T10:22:59;0.50;;;0.40;;
38779;SDS011;29273;49.962;9.768;2024-02-04T10:25:24;0.30;;;0.30;;
38779;SDS011;29273;49.962;9.768;2024-02-04T10:27:52;0.50;;;0.40;;
38779;SDS011;29273;49.962;9.768;2024-02-04T10:30:21;0.40;;;0.40;;
38779;SDS011;29273;49.962;9.768;2024-02-04T10:32:47;0.30;;;0.30;;
38779;SDS011;29273;49.962;9.768;2024-02-04T10:35:15;0.47;;;0.32;;
38779;SDS011;29273;49.962;9.768;2024-02-04T10:37:44;0.63;;;0.50;;
38779;SDS011;29273;49.962;9.768;2024-02-04T10:40:10;0.38;;;0.30;;
38779;SDS011;29273;49.962;9.768;2024-02-04T10:42:36;0.65;;;0.40;;
38779;SDS011;29273;49.962;9.768;2024-02-04T10:45:04;0.77;;;0.60;;
38779;SDS011;29273;49.962;9.768;2024-02-04T10:47:32;0.82;;;0.65;;
38779;SDS011;29273;49.962;9.768;2024-02-04T10:50:02;0.77;;;0.50;;
38779;SDS011;29273;49.962;9.768;2024-02-04T10:52:28;0.35;;;0.35;;
38779;SDS011;29273;49.962;9.768;2024-02-04T10:55:02;0.47;;;0.40;;
38779;SDS011;29273;49.962;9.768;2024-02-04T10:57:32;0.40;;;0.40;;
38779;SDS011;29273;49.962;9.768;2024-02-04T10:59:58;0.55;;;0.52;;
38779;SDS011;29273;49.962;9.768;2024-02-04T11:02:24;1.05;;;0.80;;
38779;SDS011;29273;49.962;9.768;2024-02-04T11:04:51;0.90;;;0.90;;
38779;SDS011;29273;49.962;9.768;2024-02-04T11:07:18;1.67;;;0.60;;
38779;SDS011;29273;49.962;9.768;2024-02-04T11:09:46;0.50;;;0.50;;
38779;SDS011;29273;49.962;9.768;2024-02-04T11:12:15;0.65;;;0.60;;
38779;SDS011;29273;49.962;9.768;2024-02-04T11:14:44;0.55;;;0.45;;
38779;SDS011;29273;49.962;9.768;2024-02-04T11:17:20;0.82;;;0.60;;
38779;SDS011;29273;49.962;9.768;2024-02-04T11:22:35;0.40;;;0.40;;
38779;SDS011;29273;49.962;9.768;2024-02-04T11:28:00;0.60;;;0.43;;
38779;SDS011;29273;49.962;9.768;2024-02-04T11:30:26;0.57;;;0.40;;
38779;SDS011;29273;49.962;9.768;2024-02-04T11:32:52;0.93;;;0.40;;
38779;SDS011;29273;49.962;9.768;2024-02-04T11:35:19;0.30;;;0.30;;
38779;SDS011;29273;49.962;9.768;2024-02-04T11:37:45;0.35;;;0.35;;
38779;SDS011;29273;49.962;9.768;2024-02-04T11:40:14;0.40;;;0.40;;
38779;SDS011;29273;49.962;9.768;2024-02-04T11:42:44;0.88;;;0.70;;
38779;SDS011;29273;49.962;9.768;2024-02-04T11:45:11;1.25;;;0.88;;
38779;SDS011;29273;49.962;9.768;2024-02-04T11:47:37;1.35;;;1.17;;
38779;SDS011;29273;49.962;9.768;2024-02-04T11:50:04;1.20;;;1.00;;
38779;SDS011;29273;49.962;9.768;2024-02-04T11:52:30;1.00;;;0.70;;
38779;SDS011;29273;49.962;9.768;2024-02-04T11:54:56;1.25;;;0.90;;
38779;SDS011;29273;49.962;9.768;2024-02-04T11:57:22;0.93;;;0.80;;
38779;SDS011;29273;49.962;9.768;2024-02-04T11:59:48;0.70;;;0.70;;
38779;SDS011;29273;49.962;9.768;2024-02-04T12:02:16;0.60;;;0.60;;
38779;SDS011;29273;49.962;9.768;2024-02-04T12:04:42;1.00;;;0.77;;
38779;SDS011;29273;49.962;9.768;2024-02-04T12:07:09;1.30;;;0.80;;
38779;SDS011;29273;49.962;9.768;2024-02-04T12:09:35;1.35;;;1.02;;
38779;SDS011;29273;49.962;9.768;2024-02-04T12:12:01;0.93;;;0.60;;
38779;SDS011;29273;49.962;9.768;2024-02-04T12:14:28;0.75;;;0.50;;
38779;SDS011;29273;49.962;9.768;2024-02-04T12:16:55;0.70;;;0.70;;
38779;SDS011;29273;49.962;9.768;2024-02-04T12:19:22;0.57;;;0.52;;
38779;SDS011;29273;49.962;9.768;2024-02-04T12:21:48;0.43;;;0.40;;
38779;SDS011;29273;49.962;9.768;2024-02-04T12:24:14;0.60;;;0.50;;
38779;SDS011;29273;49.962;9.768;2024-02-04T12:26:40;0.52;;;0.52;;
38779;SDS011;29273;49.962;9.768;2024-02-04T12:29:06;0.80;;;0.45;;
38779;SDS011;29273;49.962;9.768;2024-02-04T12:31:32;0.50;;;0.40;;
38779;SDS011;29273;49.962;9.768;2024-02-04T12:33:59;0.50;;;0.50;;
38779;SDS011;29273;49.962;9.768;2024-02-04T12:36:29;0.43;;;0.40;;
38779;SDS011;29273;49.962;9.768;2024-02-04T12:38:56;0.30;;;0.30;;
38779;SDS011;29273;49.962;9.768;2024-02-04T12:41:23;0.50;;;0.50;;
38779;SDS011;29273;49.962;9.768;2024-02-04T12:43:50;0.30;;;0.30;;
38779;SDS011;29273;49.962;9.768;2024-02-04T12:46:20;0.75;;;0.47;;
38779;SDS011;29273;49.962;9.768;2024-02-04T12:48:53;0.50;;;0.50;;
38779;SDS011;29273;49.962;9.768;2024-02-04T12:51:26;0.50;;;0.40;;
38779;SDS011;29273;49.962;9.768;2024-02-04T12:54:11;0.32;;;0.32;;
38779;SDS011;29273;49.962;9.768;2024-02-04T12:56:48;0.30;;;0.30;;
38779;SDS011;29273;49.962;9.768;2024-02-04T12:59:30;0.40;;;0.30;;
38779;SDS011;29273;49.962;9.768;2024-02-04T13:02:09;0.50;;;0.40;;
38779;SDS011;29273;49.962;9.768;2024-02-04T13:04:38;0.30;;;0.30;;
38779;SDS011;29273;49.962;9.768;2024-02-04T13:07:11;0.30;;;0.30;;
38779;SDS011;29273;49.962;9.768;2024-02-04T13:09:41;0.28;;;0.28;;
38779;SDS011;29273;49.962;9.768;2024-02-04T13:12:08;0.20;;;0.20;;
38779;SDS011;29273;49.962;9.768;2024-02-04T13:14:35;0.22;;;0.22;;
38779;SDS011;29273;49.962;9.768;2024-02-04T13:17:04;0.30;;;0.30;;
38779;SDS011;29273;49.962;9.768;2024-02-04T13:19:33;0.38;;;0.38;;
38779;SDS011;29273;49.962;9.768;2024-02-04T13:22:03;0.45;;;0.30;;
38779;SDS011;29273;49.962;9.768;2024-02-04T13:24:29;0.47;;;0.20;;
38779;SDS011;29273;49.962;9.768;2024-02-04T13:26:55;0.30;;;0.30;;
38779;SDS011;29273;49.962;9.768;2024-02-04T13:29:21;0.40;;;0.40;;
38779;SDS011;29273;49.962;9.768;2024-02-04T13:31:47;0.40;;;0.30;;
38779;SDS011;29273;49.962;9.768;2024-02-04T13:34:12;0.75;;;0.30;;
38779;SDS011;29273;49.962;9.768;2024-02-04T13:36:38;0.60;;;0.30;;
38779;SDS011;29273;49.962;9.768;2024-02-04T13:39:03;0.30;;;0.30;;
38779;SDS011;29273;49.962;9.768;2024-02-04T13:41:31;0.40;;;0.40;;
38779;SDS011;29273;49.962;9.768;2024-02-04T13:43:57;0.40;;;0.40;;
38779;SDS011;29273;49.962;9.768;2024-02-04T13:46:22;0.32;;;0.32;;
38779;SDS011;29273;49.962;9.768;2024-02-04T13:48:48;0.30;;;0.30;;
38779;SDS011;29273;49.962;9.768;2024-02-04T13:51:13;0.38;;;0.38;;
38779;SDS011;29273;49.962;9.768;2024-02-04T13:53:39;0.40;;;0.40;;
38779;SDS011;29273;49.962;9.768;2024-02-04T13:56:04;0.30;;;0.25;;
38779;SDS011;29273;49.962;9.768;2024-02-04T13:58:30;0.30;;;0.30;;
38779;SDS011;29273;49.962;9.768;2024-02-04T14:00:55;0.30;;;0.30;;
38779;SDS011;29273;49.962;9.768;2024-02-04T14:03:21;0.50;;;0.40;;
38779;SDS011;29273;49.962;9.768;2024-02-04T14:05:46;0.30;;;0.30;;
38779;SDS011;29273;49.962;9.768;2024-02-04T14:08:12;0.40;;;0.30;;
38779;SDS011;29273;49.962;9.768;2024-02-04T14:10:37;0.40;;;0.40;;
38779;SDS011;29273;49.962;9.768;2024-02-04T14:13:05;0.25;;;0.25;;
38779;SDS011;29273;49.962;9.768;2024-02-04T14:15:30;0.73;;;0.32;;
38779;SDS011;29273;49.962;9.768;2024-02-04T14:17:56;0.40;;;0.40;;
38779;SDS011;29273;49.962;9.768;2024-02-04T14:20:22;0.40;;;0.40;;
38779;SDS011;29273;49.962;9.768;2024-02-04T14:22:49;0.40;;;0.32;;
38779;SDS011;29273;49.962;9.768;2024-02-04T14:25:16;0.32;;;0.32;;
38779;SDS011;29273;49.962;9.768;2024-02-04T14:27:42;0.52;;;0.30;;
38779;SDS011;29273;49.962;9.768;2024-02-04T14:30:07;0.35;;;0.35;;
38779;SDS011;29273;49.962;9.768;2024-02-04T14:32:33;0.30;;;0.30;;
38779;SDS011;29273;49.962;9.768;2024-02-04T14:34:59;0.40;;;0.40;;
38779;SDS011;29273;49.962;9.768;2024-02-04T14:37:24;0.43;;;0.40;;
38779;SDS011;29273;49.962;9.768;2024-02-04T14:39:50;0.50;;;0.35;;
38779;SDS011;29273;49.962;9.768;2024-02-04T14:42:16;0.43;;;0.40;;
38779;SDS011;29273;49.962;9.768;2024-02-04T14:44:43;1.00;;;0.50;;
38779;SDS011;29273;49.962;9.768;2024-02-04T14:47:09;0.55;;;0.40;;
38779;SDS011;29273;49.962;9.768;2024-02-04T14:49:36;0.60;;;0.40;;
38779;SDS011;29273;49.962;9.768;2024-02-04T14:52:02;0.68;;;0.40;;